Time;durP1;ratioP1;P1;durP2;ratioP2;P2;SDS_P1;SDS_P2;PMS_P1;PMS_P2;Temp;Humidity;BMP_temperature;BMP_pressure;BME280_temperature;BME280_humidity;BME280_pressure;Samples;Min_cycle;Max_cycle;Signal;HPM_P1;HPM_P2
2022/05/15 00:02:52;;;;;;;1999.90;999.90;;;;;;;11.02;79.49;99554.78;8282240;28;20046;-74
2022/05/15 00:06:54;;;;;;;1999.90;999.90;;;;;;;10.99;80.16;99554.78;8284555;28;20393;-73
2022/05/15 00:10:57;;;;;;;1999.90;999.90;;;;;;;10.97;80.03;99553.06;8280876;28;20070;-74
2022/05/15 00:14:58;;;;;;;1999.90;999.90;;;;;;;10.88;80.38;99546.16;8265316;28;20078;-73
2022/05/15 00:19:00;;;;;;;1999.90;999.90;;;;;;;10.85;80.40;99541.84;8273092;28;20092;-73
2022/05/15 00:23:01;;;;;;;1999.90;999.90;;;;;;;10.81;80.65;99539.25;8291368;28;20339;-73
2022/05/15 00:27:03;;;;;;;1999.90;999.90;;;;;;;10.74;81.04;99546.19;8268090;28;20056;-73
2022/05/15 00:31:05;;;;;;;1999.90;999.90;;;;;;;10.72;80.68;99536.66;8284414;28;20064;-73
2022/05/15 00:35:08;;;;;;;1999.90;999.90;;;;;;;10.67;80.49;99528.91;8284668;28;20045;-73
2022/05/15 00:39:09;;;;;;;1999.90;999.90;;;;;;;10.57;81.04;99540.16;8276448;28;20069;-74
2022/05/15 00:43:14;;;;;;;1999.90;999.90;;;;;;;10.44;81.79;99538.47;8291522;28;20046;-73
2022/05/15 00:47:15;;;;;;;1999.90;999.90;;;;;;;10.41;82.01;99535.88;8286984;28;20077;-73
2022/05/15 00:51:22;;;;;;;1999.90;999.90;;;;;;;10.40;82.22;99545.38;8275524;28;20626;-74
2022/05/15 00:55:33;;;;;;;1999.90;999.90;;;;;;;10.38;82.38;99546.25;8288075;28;20037;-74
2022/05/15 00:59:42;;;;;;;1999.90;999.90;;;;;;;10.37;82.59;99542.78;8283473;28;20048;-73
2022/05/15 01:03:44;;;;;;;1999.90;999.90;;;;;;;10.36;82.42;99541.06;8270912;28;20046;-74
2022/05/15 01:07:46;;;;;;;;;;;;;;;10.33;83.05;99540.22;8288626;28;20049;-74
2022/05/15 01:11:48;;;;;;;1999.90;999.90;;;;;;;10.28;82.19;99535.91;8285337;28;20257;-74
2022/05/15 01:15:49;;;;;;;1999.90;999.90;;;;;;;10.20;82.40;99532.41;8295230;28;20061;-74
2022/05/15 01:20:00;;;;;;;1999.90;999.90;;;;;;;10.15;81.86;99534.13;8297911;28;20077;-74
2022/05/15 01:24:05;;;;;;;1999.90;999.90;;;;;;;10.11;81.90;99539.34;8294260;28;20128;-74
2022/05/15 01:28:16;;;;;;;1999.90;999.90;;;;;;;10.02;82.20;99528.94;8279667;28;20148;-74
2022/05/15 01:32:18;;;;;;;1999.90;999.90;;;;;;;9.96;82.27;99528.09;8272391;28;20056;-74
2022/05/15 01:36:22;;;;;;;1999.90;999.90;;;;;;;9.98;82.99;99541.91;8283906;28;20136;-74
2022/05/15 01:40:23;;;;;;;1999.90;999.90;;;;;;;9.93;82.94;99537.59;8277308;28;20065;-74
2022/05/15 01:44:25;;;;;;;1999.90;999.90;;;;;;;9.88;82.85;99532.41;8272231;28;20038;-74
2022/05/15 01:48:30;;;;;;;1999.90;999.90;;;;;;;9.86;82.62;99539.31;8286162;28;20531;-74
2022/05/15 01:52:31;;;;;;;1999.90;999.90;;;;;;;9.74;83.02;99536.72;8292120;28;20042;-74
2022/05/15 01:56:34;;;;;;;1999.90;999.90;;;;;;;9.69;82.65;99531.53;8279934;28;20071;-74
2022/05/15 02:00:36;;;;;;;1999.90;999.90;;;;;;;9.61;83.38;99533.25;8289645;28;20038;-73
2022/05/15 02:04:38;;;;;;;;;;;;;;;9.58;83.45;99528.06;8266530;28;20048;-74
2022/05/15 02:08:39;;;;;;;1999.90;999.90;;;;;;;9.53;83.97;99534.09;8292773;28;19925;-74
2022/05/15 02:12:41;;;;;;;1999.90;999.90;;;;;;;9.52;83.92;99527.19;8293104;28;20050;-74
2022/05/15 02:16:42;;;;;;;1999.90;999.90;;;;;;;9.49;84.22;99517.66;8291523;28;20064;-74
2022/05/15 02:20:44;;;;;;;1999.90;999.90;;;;;;;9.45;83.86;99515.06;8283675;28;20046;-74
2022/05/15 02:24:46;;;;;;;1999.90;999.90;;;;;;;9.39;84.02;99511.59;8276710;28;20165;-74
2022/05/15 02:28:47;;;;;;;1999.90;999.90;;;;;;;9.31;83.77;99509.84;8297830;28;20046;-74
2022/05/15 02:32:49;;;;;;;1999.90;999.90;;;;;;;9.24;83.93;99511.56;8290022;28;20149;-74
2022/05/15 02:36:51;;;;;;;1999.90;999.90;;;;;;;9.23;84.34;99508.97;8299839;28;20124;-74
2022/05/15 02:40:52;;;;;;;1999.90;999.90;;;;;;;9.22;83.85;99515.00;8272352;28;20728;-73
2022/05/15 02:44:54;;;;;;;1999.90;999.90;;;;;;;9.21;84.24;99521.06;8274048;28;20056;-74
2022/05/15 02:53:16;;;;;;;1999.90;999.90;;;;;;;9.16;83.95;99515.00;8291796;28;20525;-74
2022/05/15 02:57:17;;;;;;;1999.90;999.90;;;;;;;9.06;84.20;99507.19;8289292;28;20038;-74
2022/05/15 03:01:19;;;;;;;1999.90;999.90;;;;;;;9.02;84.09;99508.03;8272813;28;20054;-73
2022/05/15 03:05:21;;;;;;;1999.90;999.90;;;;;;;8.96;84.00;99512.31;8293382;28;20070;-73
2022/05/15 03:09:23;;;;;;;1999.90;999.90;;;;;;;8.89;84.01;99511.44;8287453;28;20357;-73
2022/05/15 03:13:25;;;;;;;1999.90;999.90;;;;;;;8.81;84.06;99507.09;8286985;28;20042;-73
2022/05/15 03:17:26;;;;;;;1999.90;999.90;;;;;;;8.76;83.80;99497.56;8269770;28;20098;-73
2022/05/15 03:21:30;;;;;;;1999.90;999.90;;;;;;;8.70;84.28;99499.25;8259027;28;20053;-73
2022/05/15 03:25:33;;;;;;;1999.90;999.90;;;;;;;8.71;84.91;99491.50;8262191;28;20061;-73
2022/05/15 03:29:35;;;;;;;;;;;;;;;8.70;84.85;99496.69;8300766;28;20065;-74
2022/05/15 03:33:36;;;;;;;1999.90;999.90;;;;;;;8.66;85.08;99494.94;8283230;28;19925;-73
2022/05/15 03:37:39;;;;;;;1999.90;999.90;;;;;;;8.70;84.94;99491.50;8294590;28;20048;-73
2022/05/15 03:41:41;;;;;;;1999.90;999.90;;;;;;;8.70;84.79;99492.38;8278629;28;20057;-73
2022/05/15 03:45:43;;;;;;;1999.90;999.90;;;;;;;8.68;85.09;99490.63;8293629;28;20084;-73
2022/05/15 03:49:45;;;;;;;1999.90;999.90;;;;;;;8.66;85.10;99493.22;8272755;28;20061;-73
2022/05/15 03:53:47;;;;;;;1999.90;999.90;;;;;;;8.64;84.84;99494.94;8275428;28;20084;-74
2022/05/15 03:57:55;;;;;;;1999.90;999.90;;;;;;;8.59;84.87;99491.44;8263271;28;20060;-74
2022/05/15 04:01:58;;;;;;;1999.90;999.90;;;;;;;8.58;84.76;99488.84;8273563;28;20157;-74
2022/05/15 04:06:00;;;;;;;1999.90;999.90;;;;;;;8.57;85.23;99490.56;8269712;28;20069;-74
2022/05/15 04:10:01;;;;;;;1999.90;999.90;;;;;;;8.58;85.29;99494.88;8291878;28;20077;-74
2022/05/15 04:14:03;;;;;;;1999.90;999.90;;;;;;;8.62;85.52;99494.06;8271490;28;20080;-74
2022/05/15 04:18:06;;;;;;;1999.90;999.90;;;;;;;8.62;85.90;99495.78;8279251;28;20614;-74
2022/05/15 04:22:08;;;;;;;1999.90;999.90;;;;;;;8.67;86.17;99494.09;8286930;28;20046;-74
2022/05/15 04:26:09;;;;;;;1999.90;999.90;;;;;;;8.77;85.69;99499.28;8275138;28;20117;-74
2022/05/15 04:30:17;;;;;;;1999.90;999.90;;;;;;;8.87;85.65;99507.13;8272101;28;20414;-75
2022/05/15 04:34:19;;;;;;;1999.90;999.90;;;;;;;8.89;85.96;99508.84;8275454;28;20097;-75
2022/05/15 04:38:21;;;;;;;1999.90;999.90;;;;;;;8.97;86.15;99506.28;8269870;28;20782;-75
2022/05/15 04:42:22;;;;;;;1999.90;999.90;;;;;;;9.14;86.19;99501.16;8267809;28;20041;-75
2022/05/15 04:46:26;;;;;;;1999.90;999.90;;;;;;;9.26;86.08;99504.66;8258175;28;20061;-75
2022/05/15 04:50:27;;;;;;;1999.90;999.90;;;;;;;9.47;85.78;99505.56;8268484;28;20057;-75
2022/05/15 04:54:29;;;;;;;1999.90;999.90;;;;;;;9.61;85.56;99501.25;8299433;28;20195;-75
2022/05/15 04:58:30;;;;;;;1999.90;999.90;;;;;;;9.73;85.22;99501.28;8298861;28;20038;-75
2022/05/15 05:02:31;;;;;;;1999.90;999.90;;;;;;;9.92;84.49;99492.66;8288426;28;20050;-75
2022/05/15 05:06:33;;;;;;;1999.90;999.90;;;;;;;10.14;84.09;99501.28;8284832;28;20040;-75
2022/05/15 05:10:35;;;;;;;1999.90;999.90;;;;;;;10.31;83.52;99500.44;8299725;28;20045;-75
2022/05/15 05:14:37;;;;;;;1999.90;999.90;;;;;;;10.57;83.15;99503.81;8280472;28;20073;-75
2022/05/15 05:18:43;;;;;;;1999.90;999.90;;;;;;;10.90;82.61;99489.84;8280443;28;20064;-75
2022/05/15 05:22:45;;;;;;;1999.90;999.90;;;;;;;11.33;81.34;99489.66;8302864;28;20084;-75
2022/05/15 05:26:46;;;;;;;1999.90;999.90;;;;;;;11.75;80.19;99494.56;8300028;28;20030;-75
2022/05/15 05:30:49;;;;;;;1999.90;999.90;;;;;;;12.23;78.86;99489.88;8282798;28;20057;-76
2022/05/15 05:34:50;;;;;;;1999.90;999.90;;;;;;;12.83;76.23;99497.88;8280444;28;20060;-75
2022/05/15 05:38:52;;;;;;;1999.90;999.90;;;;;;;13.17;75.79;99495.72;8298915;28;20069;-75
2022/05/15 05:42:53;;;;;;;1999.90;999.90;;;;;;;13.39;75.32;99491.09;8293411;28;20534;-75
2022/05/15 05:46:55;;;;;;;1999.90;999.90;;;;;;;13.66;74.34;99492.47;8290638;28;20706;-76
2022/05/15 05:50:57;;;;;;;1999.90;999.90;;;;;;;14.10;72.90;99488.25;8250456;28;20305;-75
2022/05/15 05:54:58;;;;;;;1999.90;999.90;;;;;;;14.57;73.04;99492.66;8276554;28;20046;-75
2022/05/15 05:58:59;;;;;;;1999.90;999.90;;;;;;;15.14;70.65;99492.38;8275297;28;20310;-75
2022/05/15 06:07:25;;;;;;;1999.90;999.90;;;;;;;16.26;65.67;99486.25;8259693;28;20037;-74
2022/05/15 06:11:27;;;;;;;1999.90;999.90;;;;;;;16.88;62.44;99493.38;8274417;28;20056;-74
2022/05/15 06:15:29;;;;;;;1999.90;999.90;;;;;;;17.54;59.35;99492.25;8265897;28;20049;-73
2022/05/15 06:19:32;;;;;;;1999.90;999.90;;;;;;;18.02;56.27;99489.84;8270094;28;20045;-74
2022/05/15 06:23:33;;;;;;;1999.90;999.90;;;;;;;18.29;54.73;99493.31;8295018;28;20041;-74
2022/05/15 06:27:38;;;;;;;1999.90;999.90;;;;;;;18.45;53.29;99490.16;8276105;28;20124;-74
2022/05/15 06:31:39;;;;;;;1999.90;999.90;;;;;;;18.96;51.76;99504.13;8270815;28;20532;-74
2022/05/15 06:35:41;;;;;;;1999.90;999.90;;;;;;;19.41;50.45;99495.41;8281189;28;20057;-74
2022/05/15 06:39:42;;;;;;;1999.90;999.90;;;;;;;19.84;49.70;99491.94;8281747;28;20076;-74
2022/05/15 06:43:44;;;;;;;1999.90;999.90;;;;;;;20.18;48.82;99493.19;8267619;28;20144;-74
2022/05/15 06:47:45;;;;;;;1999.90;999.90;;;;;;;20.54;48.05;99487.31;8280571;28;20081;-74
2022/05/15 06:51:47;;;;;;;1999.90;999.90;;;;;;;20.74;47.20;99488.16;8258919;28;20050;-73
2022/05/15 07:00:12;;;;;;;1999.90;999.90;;;;;;;20.65;47.58;99500.91;8276129;28;19935;-72
2022/05/15 07:04:14;;;;;;;1999.90;999.90;;;;;;;20.55;48.08;99503.06;8282561;28;20061;-73
2022/05/15 07:08:16;;;;;;;1999.90;999.90;;;;;;;20.50;49.08;99498.00;8264539;28;20392;-73
2022/05/15 07:12:17;;;;;;;;;;;;;;;20.66;49.55;99499.97;8283252;28;20813;-73
2022/05/15 07:16:19;;;;;;;1999.90;999.90;;;;;;;21.12;46.53;99496.97;8282258;28;19932;-74
2022/05/15 07:20:20;;;;;;;1999.90;999.90;;;;;;;21.50;45.89;99493.50;8268273;28;20042;-74
2022/05/15 07:24:22;;;;;;;1999.90;999.90;;;;;;;21.94;45.14;99492.22;8282886;28;20500;-74
2022/05/15 07:28:24;;;;;;;1999.90;999.90;;;;;;;22.22;44.23;99481.16;8284752;28;20038;-73
2022/05/15 07:32:25;;;;;;;1999.90;999.90;;;;;;;22.34;42.58;99482.31;8274347;28;20454;-74
2022/05/15 07:36:27;;;;;;;1999.90;999.90;;;;;;;22.59;42.15;99479.25;8287051;28;20088;-73
2022/05/15 07:40:28;;;;;;;1999.90;999.90;;;;;;;22.88;41.98;99478.63;8286964;28;20050;-74
2022/05/15 07:44:30;;;;;;;1999.90;999.90;;;;;;;23.01;40.95;99468.22;8288502;28;20469;-73
2022/05/15 07:48:31;;;;;;;1999.90;999.90;;;;;;;23.18;40.68;99470.81;8276473;28;20045;-74
2022/05/15 07:52:33;;;;;;;1999.90;999.90;;;;;;;23.37;40.43;99473.31;8279201;28;20472;-74
2022/05/15 07:56:34;;;;;;;1999.90;999.90;;;;;;;23.62;39.64;99466.66;8270946;28;20105;-73
2022/05/15 08:00:36;;;;;;;1999.90;999.90;;;;;;;23.85;38.48;99465.31;8285166;28;20132;-74
2022/05/15 08:08:58;;;;;;;1999.90;999.90;;;;;;;24.24;38.18;99460.38;8286976;28;20041;-74
2022/05/15 08:13:00;;;;;;;1999.90;999.90;;;;;;;24.37;38.81;99458.69;8263335;28;20038;-74
2022/05/15 08:17:02;;;;;;;1999.90;999.90;;;;;;;24.73;37.90;99453.91;8265623;28;20084;-74
2022/05/15 08:25:25;;;;;;;1999.90;999.90;;;;;;;25.23;36.50;99442.81;8274695;28;20050;-75
2022/05/15 08:29:26;;;;;;;1999.90;999.90;;;;;;;25.41;36.15;99456.72;8272383;28;20067;-75
2022/05/15 08:33:28;;;;;;;1999.90;999.90;;;;;;;25.54;35.15;99447.00;8266862;28;20735;-74
2022/05/15 08:37:30;;;;;;;1999.90;999.90;;;;;;;25.61;34.77;99441.19;8271927;28;20041;-74
2022/05/15 08:41:32;;;;;;;1999.90;999.90;;;;;;;25.71;34.94;99440.63;8276833;28;20045;-75
2022/05/15 08:45:41;;;;;;;1999.90;999.90;;;;;;;25.80;33.69;99438.19;8284904;28;20049;-74
2022/05/15 08:49:54;;;;;;;1999.90;999.90;;;;;;;25.88;34.42;99443.88;8262753;28;20045;-75
2022/05/15 08:53:55;;;;;;;1999.90;999.90;;;;;;;26.03;34.76;99443.78;8264003;28;20084;-75
2022/05/15 08:58:03;;;;;;;1999.90;999.90;;;;;;;26.02;34.15;99440.28;8273273;28;20447;-74
2022/05/15 09:02:08;;;;;;;1999.90;999.90;;;;;;;26.14;33.63;99439.47;8277882;28;20054;-76
2022/05/15 09:06:22;;;;;;;1999.90;999.90;;;;;;;26.25;33.74;99433.41;8267093;28;20049;-74
2022/05/15 09:10:37;;;;;;;1999.90;999.90;;;;;;;26.36;34.51;99438.88;8276911;28;20149;-74
2022/05/15 09:14:49;;;;;;;1999.90;999.90;;;;;;;26.45;33.63;99430.25;8281551;28;20060;-74
2022/05/15 09:18:50;;;;;;;1999.90;999.90;;;;;;;26.56;33.80;99429.50;8257089;28;20050;-76
2022/05/15 09:23:16;;;;;;;1999.90;999.90;;;;;;;26.72;33.27;99421.28;8286649;28;20486;-76
2022/05/15 09:27:26;;;;;;;1999.90;999.90;;;;;;;26.91;33.62;99421.69;8280759;28;20319;-76
2022/05/15 09:31:42;;;;;;;1999.90;999.90;;;;;;;27.03;33.22;99414.69;8270360;28;20166;-76
2022/05/15 09:35:46;;;;;;;1999.90;999.90;;;;;;;27.18;32.84;99408.25;8280312;28;20115;-76
2022/05/15 09:39:50;;;;;;;1999.90;999.90;;;;;;;27.23;33.54;99416.75;8266602;28;20041;-76
2022/05/15 09:43:53;;;;;;;1999.90;999.90;;;;;;;27.30;32.95;99402.03;8264478;28;20045;-76
2022/05/15 09:47:58;;;;;;;1999.90;999.90;;;;;;;27.42;33.25;99407.41;8275859;28;20045;-75
2022/05/15 09:52:09;;;;;;;1999.90;999.90;;;;;;;27.48;32.54;99402.50;8271409;28;20048;-76
2022/05/15 09:56:33;;;;;;;1999.90;999.90;;;;;;;27.50;32.81;99397.03;8284299;28;20125;-75
2022/05/15 10:00:38;;;;;;;1999.90;999.90;;;;;;;27.59;32.93;99394.53;8255874;28;20049;-74
2022/05/15 10:04:40;;;;;;;1999.90;999.90;;;;;;;27.80;33.34;99386.75;8282231;28;20070;-75
2022/05/15 10:08:41;;;;;;;1999.90;999.90;;;;;;;27.92;32.57;99387.66;8279514;28;20069;-74
2022/05/15 10:12:45;;;;;;;1999.90;999.90;;;;;;;27.87;32.41;99365.81;8287223;28;20041;-74
2022/05/15 10:16:54;;;;;;;1999.90;999.90;;;;;;;28.03;32.43;99373.50;8255739;28;20052;-74
2022/05/15 10:20:56;;;;;;;1999.90;999.90;;;;;;;28.12;32.10;99370.97;8261499;28;20049;-74
2022/05/15 10:25:24;;;;;;;1999.90;999.90;;;;;;;28.28;30.89;99362.66;8279976;28;20077;-75
2022/05/15 10:29:38;;;;;;;1999.90;999.90;;;;;;;28.28;31.20;99355.47;8276496;28;20056;-74
2022/05/15 10:33:43;;;;;;;1999.90;999.90;;;;;;;28.33;31.36;99349.78;8276824;28;20049;-75
2022/05/15 10:38:13;;;;;;;1999.90;999.90;;;;;;;28.39;31.34;99341.31;8289077;28;20073;-74
2022/05/15 10:42:14;;;;;;;1999.90;999.90;;;;;;;28.56;30.86;99340.81;8285211;28;20152;-74
2022/05/15 10:46:49;;;;;;;1999.90;999.90;;;;;;;28.75;30.66;99337.53;8265652;28;20065;-74
2022/05/15 10:51:19;;;;;;;1999.90;999.90;;;;;;;28.83;29.44;99347.59;8284102;28;20042;-74
2022/05/15 11:00:06;;;;;;;1999.90;999.90;;;;;;;28.88;30.29;99332.06;8283903;28;20342;-74
2022/05/15 11:04:16;;;;;;;1999.90;999.90;;;;;;;29.08;30.32;99328.59;8274030;28;20092;-74
2022/05/15 11:08:27;;;;;;;1999.90;999.90;;;;;;;29.27;29.56;99321.78;8282388;28;20051;-75
2022/05/15 11:12:37;;;;;;;1999.90;999.90;;;;;;;29.38;28.94;99319.88;8279779;28;20053;-74
2022/05/15 11:16:47;;;;;;;1999.90;999.90;;;;;;;29.38;28.39;99311.84;8261785;28;20080;-74
2022/05/15 11:20:54;;;;;;;1999.90;999.90;;;;;;;29.43;28.85;99306.09;8294402;28;20450;-74
2022/05/15 11:25:04;;;;;;;1999.90;999.90;;;;;;;29.41;27.04;99294.69;8274330;28;20080;-74
2022/05/15 11:29:13;;;;;;;1999.90;999.90;;;;;;;29.54;29.04;99292.72;8297930;28;20448;-74
2022/05/15 11:33:48;;;;;;;1999.90;999.90;;;;;;;29.64;28.84;99301.69;8280531;28;20081;-73
2022/05/15 11:37:55;;;;;;;1999.90;999.90;;;;;;;29.74;28.28;99294.56;8266778;28;20041;-73
2022/05/15 11:42:14;;;;;;;1999.90;999.90;;;;;;;29.91;27.93;99289.59;8261866;28;20514;-74
2022/05/15 11:46:15;;;;;;;1999.90;999.90;;;;;;;29.82;27.59;99280.53;8279698;28;20053;-74
2022/05/15 11:50:57;;;;;;;1999.90;999.90;;;;;;;29.94;28.39;99274.09;8265311;28;20572;-74
2022/05/15 11:54:59;;;;;;;1999.90;999.90;;;;;;;30.02;27.80;99274.31;8256534;28;20092;-73
2022/05/15 11:59:17;;;;;;;1999.90;999.90;;;;;;;30.05;27.60;99259.81;8264065;28;20129;-74
2022/05/15 12:03:50;;;;;;;1999.90;999.90;;;;;;;30.19;27.36;99264.00;8270881;28;20080;-73
2022/05/15 12:08:25;;;;;;;1999.90;999.90;;;;;;;30.32;27.27;99256.53;8270477;28;20057;-74
2022/05/15 12:12:30;;;;;;;1999.90;999.90;;;;;;;30.50;27.30;99256.75;8256751;28;20164;-74
2022/05/15 12:16:52;;;;;;;1999.90;999.90;;;;;;;30.10;26.43;99251.38;8252100;28;20041;-74
2022/05/15 12:20:55;;;;;;;1999.90;999.90;;;;;;;30.27;26.65;99248.06;8294463;28;20081;-74
2022/05/15 12:24:57;;;;;;;1999.90;999.90;;;;;;;30.46;26.49;99237.41;8264794;28;20418;-74
2022/05/15 12:29:04;;;;;;;1999.90;999.90;;;;;;;30.57;27.16;99240.00;8267360;28;20050;-74
2022/05/15 12:33:07;;;;;;;1999.90;999.90;;;;;;;30.67;26.83;99238.19;8267846;28;20046;-74
2022/05/15 12:37:12;;;;;;;1999.90;999.90;;;;;;;30.75;27.15;99232.16;8254005;28;20054;-74
2022/05/15 12:41:26;;;;;;;1999.90;999.90;;;;;;;30.77;25.99;99230.19;8244096;28;20050;-74
2022/05/15 12:45:32;;;;;;;1999.90;999.90;;;;;;;30.86;25.74;99226.66;8241133;28;20050;-74
2022/05/15 12:49:40;;;;;;;1999.90;999.90;;;;;;;30.87;26.21;99222.13;8245547;28;20137;-74
2022/05/15 12:53:46;;;;;;;1999.90;999.90;;;;;;;30.94;26.53;99209.88;8245354;28;20054;-74
2022/05/15 12:57:51;;;;;;;1999.90;999.90;;;;;;;30.91;26.16;99213.69;8229573;28;20038;-74
2022/05/15 13:01:54;;;;;;;1999.90;999.90;;;;;;;30.91;25.47;99208.34;8228877;28;20770;-74
2022/05/15 13:06:07;;;;;;;1999.90;999.90;;;;;;;30.96;25.76;99205.22;8228034;28;20039;-74
2022/05/15 13:10:12;;;;;;;1999.90;999.90;;;;;;;30.91;25.43;99200.28;8233722;28;20514;-74
2022/05/15 13:14:36;;;;;;;1999.90;999.90;;;;;;;31.01;26.10;99200.28;8236535;28;20131;-74
2022/05/15 13:18:37;;;;;;;1999.90;999.90;;;;;;;30.99;26.22;99202.25;8231302;28;20153;-74
2022/05/15 13:22:39;;;;;;;1999.90;999.90;;;;;;;30.98;26.11;99200.56;8255135;28;20080;-74
2022/05/15 13:26:45;;;;;;;1999.90;999.90;;;;;;;30.84;25.53;99177.69;8246023;28;20124;-74
2022/05/15 13:30:46;;;;;;;1999.90;999.90;;;;;;;30.87;26.03;99185.44;8250462;28;20081;-74
2022/05/15 13:34:50;;;;;;;1999.90;999.90;;;;;;;30.89;25.26;99170.09;8278327;28;20108;-73
2022/05/15 13:43:17;;;;;;;1999.90;999.90;;;;;;;30.90;26.02;99176.31;8280431;28;20073;-74
2022/05/15 13:47:20;;;;;;;1999.90;999.90;;;;;;;30.96;26.45;99167.69;8258099;28;20053;-73
2022/05/15 13:51:48;;;;;;;1999.90;999.90;;;;;;;31.01;26.25;99162.72;8280125;28;20729;-74
2022/05/15 13:55:52;;;;;;;1999.90;999.90;;;;;;;31.07;26.37;99156.81;8272614;28;20485;-73
2022/05/15 13:59:54;;;;;;;1999.90;999.90;;;;;;;31.11;25.83;99152.00;8272289;28;20069;-73
2022/05/15 14:03:58;;;;;;;1999.90;999.90;;;;;;;30.88;24.76;99160.34;8283731;28;20078;-73
2022/05/15 14:08:17;;;;;;;1999.90;999.90;;;;;;;30.87;24.77;99147.06;8279147;28;20587;-72
2022/05/15 14:12:38;;;;;;;1999.90;999.90;;;;;;;31.00;23.81;99147.63;8266268;28;20045;-73
2022/05/15 14:16:39;;;;;;;1999.90;999.90;;;;;;;30.80;21.69;99141.44;8247242;28;20715;-73
2022/05/15 14:20:44;;;;;;;1999.90;999.90;;;;;;;30.79;24.83;99133.53;8261113;28;20042;-74
2022/05/15 14:24:45;;;;;;;1999.90;999.90;;;;;;;30.90;23.78;99131.56;8279182;28;21264;-74
2022/05/15 14:28:47;;;;;;;1999.90;999.90;;;;;;;31.07;26.76;99129.16;8260765;28;20042;-74
2022/05/15 14:32:52;;;;;;;1999.90;999.90;;;;;;;31.12;26.42;99127.72;8272297;28;20050;-74
2022/05/15 14:36:53;;;;;;;1999.90;999.90;;;;;;;31.15;25.84;99124.75;8281119;28;20713;-75
2022/05/15 14:40:56;;;;;;;1999.90;999.90;;;;;;;31.19;26.33;99120.81;8278123;28;20113;-74
2022/05/15 14:44:58;;;;;;;1999.90;999.90;;;;;;;31.32;25.61;99117.81;8281528;28;20056;-75
2022/05/15 14:49:01;;;;;;;1999.90;999.90;;;;;;;31.24;24.81;99117.72;8278251;28;20038;-74
2022/05/15 14:53:06;;;;;;;1999.90;999.90;;;;;;;31.32;25.07;99106.25;8281870;28;20753;-75
2022/05/15 14:57:08;;;;;;;1999.90;999.90;;;;;;;31.43;26.15;99114.13;8275421;28;20449;-75
2022/05/15 15:01:10;;;;;;;1999.90;999.90;;;;;;;31.47;25.40;99102.09;8264892;28;20060;-75
2022/05/15 15:05:11;;;;;;;1999.90;999.90;;;;;;;31.61;24.94;99107.00;8269275;28;20045;-75
2022/05/15 15:09:14;;;;;;;1999.90;999.90;;;;;;;31.57;24.61;99094.84;8285639;28;20045;-75
2022/05/15 15:13:16;;;;;;;1999.90;999.90;;;;;;;31.71;24.53;99088.16;8264642;28;20077;-75
2022/05/15 15:17:17;;;;;;;1999.90;999.90;;;;;;;31.79;24.47;99088.31;8260090;28;20075;-75
2022/05/15 15:21:20;;;;;;;1999.90;999.90;;;;;;;31.89;23.75;99082.88;8268466;28;20457;-75
2022/05/15 15:25:21;;;;;;;1999.90;999.90;;;;;;;31.75;23.83;99087.72;8276469;28;20133;-75
2022/05/15 15:29:23;;;;;;;1999.90;999.90;;;;;;;31.76;23.75;99088.56;8278363;28;20076;-75
2022/05/15 15:33:24;;;;;;;1999.90;999.90;;;;;;;31.73;23.67;99084.34;8269415;28;20525;-74
2022/05/15 15:41:46;;;;;;;1999.90;999.90;;;;;;;31.54;24.54;99079.03;8283615;28;20057;-75
2022/05/15 15:45:48;;;;;;;1999.90;999.90;;;;;;;31.49;26.32;99073.28;8287843;28;20485;-74
2022/05/15 15:49:50;;;;;;;1999.90;999.90;;;;;;;31.37;25.42;99069.91;8284330;28;20041;-75
2022/05/15 15:53:54;;;;;;;1999.90;999.90;;;;;;;31.49;25.80;99065.22;8284848;28;20137;-74
2022/05/15 15:57:56;;;;;;;1999.90;999.90;;;;;;;31.48;25.27;99061.69;8266580;28;20429;-74
2022/05/15 16:01:57;;;;;;;1999.90;999.90;;;;;;;31.48;25.38;99063.53;8279483;28;20058;-75
2022/05/15 16:05:59;;;;;;;1999.90;999.90;;;;;;;31.28;25.30;99062.75;8283691;28;20490;-75
2022/05/15 16:10:00;;;;;;;1999.90;999.90;;;;;;;31.00;25.05;99051.06;8279727;28;20046;-75
2022/05/15 16:14:02;;;;;;;1999.90;999.90;;;;;;;30.74;25.70;99058.03;8283843;28;20071;-75
2022/05/15 16:18:05;;;;;;;1999.90;999.90;;;;;;;30.46;26.26;99049.84;8279688;28;20045;-75
2022/05/15 16:22:09;;;;;;;1999.90;999.90;;;;;;;30.09;27.08;99044.31;8277381;28;20762;-75
2022/05/15 16:26:12;;;;;;;1999.90;999.90;;;;;;;29.60;27.79;99034.44;8266263;28;20041;-75
2022/05/15 16:30:18;;;;;;;1999.90;999.90;;;;;;;29.18;28.19;99019.31;8283621;28;20050;-75
2022/05/15 16:34:20;;;;;;;1999.90;999.90;;;;;;;28.91;30.68;99020.88;8282183;28;20080;-75
2022/05/15 16:38:22;;;;;;;1999.90;999.90;;;;;;;28.64;32.00;99014.19;8270150;28;20047;-75
2022/05/15 16:42:31;;;;;;;1999.90;999.90;;;;;;;28.40;33.69;99014.44;8277203;28;20080;-75
2022/05/15 16:46:32;;;;;;;1999.90;999.90;;;;;;;28.15;33.12;99012.06;8262453;28;20780;-74
2022/05/15 16:50:34;;;;;;;;;;;;;;;28.03;33.50;99007.78;8281670;28;20045;-74
2022/05/15 16:54:36;;;;;;;;;;;;;;;27.87;34.55;99006.34;8262411;28;19926;-74
2022/05/15 16:58:37;;;;;;;1999.90;999.90;;;;;;;27.73;34.91;99009.28;8278934;28;19929;-75
2022/05/15 17:02:39;;;;;;;1999.90;999.90;;;;;;;27.68;35.57;99007.00;8265129;28;20069;-75
2022/05/15 17:06:44;;;;;;;1999.90;999.90;;;;;;;27.65;33.48;98999.25;8272097;28;20445;-74
2022/05/15 17:10:46;;;;;;;1999.90;999.90;;;;;;;27.61;32.61;99003.09;8279305;28;20084;-74
2022/05/15 17:14:47;;;;;;;1999.90;999.90;;;;;;;27.52;31.52;98995.00;8252178;28;20115;-74
2022/05/15 17:18:48;;;;;;;1999.90;999.90;;;;;;;27.45;32.19;98991.09;8251905;28;20046;-74
2022/05/15 17:22:50;;;;;;;1999.90;999.90;;;;;;;27.30;32.74;98986.06;8275897;28;20037;-73
2022/05/15 17:26:52;;;;;;;1999.90;999.90;;;;;;;27.20;33.15;98990.41;8275120;28;20453;-74
2022/05/15 17:35:16;;;;;;;1999.90;999.90;;;;;;;26.99;32.17;98990.25;8281901;28;20065;-74
2022/05/15 17:39:19;;;;;;;1999.90;999.90;;;;;;;26.86;32.10;98986.00;8276622;28;20042;-74
2022/05/15 17:43:21;;;;;;;1999.90;999.90;;;;;;;26.76;31.87;98984.06;8283788;28;20042;-74
2022/05/15 17:47:22;;;;;;;1999.90;999.90;;;;;;;26.65;32.55;98985.84;8272353;28;20049;-72
2022/05/15 17:51:24;;;;;;;;;;;;;;;26.54;32.65;98983.13;8280041;28;20080;-73
2022/05/15 17:55:25;;;;;;;1999.90;999.90;;;;;;;26.40;33.28;98987.72;8276602;28;19935;-73
2022/05/15 17:59:27;;;;;;;;;;;;;;;26.28;33.81;98977.97;8284505;28;20413;-73
2022/05/15 18:03:28;;;;;;;1999.90;999.90;;;;;;;26.18;33.99;98982.28;8283872;28;19976;-74
2022/05/15 18:07:30;;;;;;;1999.90;999.90;;;;;;;26.01;35.66;98982.69;8278863;28;20049;-73
2022/05/15 18:11:31;;;;;;;1999.90;999.90;;;;;;;25.84;36.03;98982.09;8286612;28;20052;-74
2022/05/15 18:15:33;;;;;;;1999.90;999.90;;;;;;;25.72;36.13;98984.84;8286800;28;20081;-73
2022/05/15 18:19:34;;;;;;;1999.90;999.90;;;;;;;25.60;36.29;98990.03;8271464;28;20056;-71
2022/05/15 18:23:36;;;;;;;1999.90;999.90;;;;;;;25.46;36.75;98989.34;8287252;28;20519;-75
2022/05/15 18:27:38;;;;;;;1999.90;999.90;;;;;;;25.29;37.51;99001.19;8271570;28;20497;-75
2022/05/15 18:31:40;;;;;;;1999.90;999.90;;;;;;;25.01;39.04;98996.97;8282887;28;20085;-75
2022/05/15 18:35:42;;;;;;;1999.90;999.90;;;;;;;24.66;40.87;99008.19;8277240;28;20064;-75
2022/05/15 18:39:43;;;;;;;1999.90;999.90;;;;;;;24.22;42.39;99012.94;8283813;28;20347;-75
2022/05/15 18:43:45;;;;;;;1999.90;999.90;;;;;;;23.84;43.99;99018.94;8285457;28;20131;-75
2022/05/15 18:47:47;;;;;;;1999.90;999.90;;;;;;;23.49;45.54;99016.72;8247216;28;20060;-74
2022/05/15 18:56:16;;;;;;;1999.90;999.90;;;;;;;22.90;47.00;99031.88;8287726;28;20504;-76
2022/05/15 19:00:19;;;;;;;1999.90;999.90;;;;;;;22.66;47.78;99033.31;8281220;28;20038;-75